Ns Champion — A8FD9 — position and weather

sailwx.info

Track history (hours):
 
Tides and Currents Weather Stations Pressure Air Temp Water Temp Dewpoint Dewpoint Depression Visibility Wind Speed Wind Dir Waves Ship Positions

Ns Champion

Last reported at 2017-Nov-19 01:26 UTC. Time now 2017-Nov-24 14:47 UTC.
Position N 27°08' W 016°40'.

Length 244 m; draft 8 m.

Type: Ship. MMSI: 636012384.

Date/timePositionNaut miles runAvg speedWind from/ knotsBaromVisibWave heightAir tempDewpointWater temp
2017-Nov-19 01:26N 27°08' W 016°40'613.5
2017-Nov-19 01:00N 27°13' W 016°38'1313.2
2017-Nov-19 00:02N 27°25' W 016°34'113.3
2017-Nov-18 23:57N 27°26' W 016°33'613.6
2017-Nov-18 23:29N 27°32' W 016°31'1013.6
2017-Nov-18 22:44N 27°42' W 016°27'313.7
2017-Nov-18 22:30N 27°45' W 016°25'713.9
2017-Nov-18 22:00N 27°51' W 016°23'3413.5
2017-Nov-18 19:31N 28°22' W 016°06'113.0
2017-Nov-18 19:29N 28°22' W 016°07'8 0.7
2017-Nov-18 08:34N 28°29' W 016°11'10 6.3
2017-Nov-18 06:55N 28°25' W 016°00'511.7
2017-Nov-18 06:30N 28°27' W 015°55'713.2
2017-Nov-18 06:00N 28°32' W 015°50'813.0
2017-Nov-18 05:26N 28°38' W 015°44'511.5
2017-Nov-18 05:00N 28°41' W 015°48'612.2
2017-Nov-18 04:30N 28°46' W 015°53'1312.1
2017-Nov-18 03:24N 28°54' W 016°05'812.3
2017-Nov-18 02:43N 28°58' W 016°13'412.2
2017-Nov-18 02:25N 28°59' W 016°17'612.0
2017-Nov-18 01:56N 29°02' W 016°23'1812.2
2017-Nov-18 00:30N 29°09' W 016°41'612.4
2017-Nov-17 23:59N 29°12' W 016°48'  
Track history (hours):
 
Tides and Currents Weather Stations Pressure Air Temp Water Temp Dewpoint Dewpoint Depression Visibility Wind Speed Wind Dir Waves Ship Positions

Ns Champion

Last reported at 2017-Nov-19 01:26 UTC. Time now 2017-Nov-24 14:47 UTC.
Position N 27°08' W 016°40'.

Length 244 m; draft 8 m.

Type: Ship. MMSI: 636012384.

Date/timePositionNaut miles runAvg speedWind from/ knotsBaromVisibWave heightAir tempDewpointWater temp
2017-Nov-19 01:26N 27°08' W 016°40'613.5
2017-Nov-19 01:00N 27°13' W 016°38'1313.2
2017-Nov-19 00:02N 27°25' W 016°34'113.3
2017-Nov-18 23:57N 27°26' W 016°33'613.6
2017-Nov-18 23:29N 27°32' W 016°31'1013.6
2017-Nov-18 22:44N 27°42' W 016°27'313.7
2017-Nov-18 22:30N 27°45' W 016°25'713.9
2017-Nov-18 22:00N 27°51' W 016°23'3413.5
2017-Nov-18 19:31N 28°22' W 016°06'113.0
2017-Nov-18 19:29N 28°22' W 016°07'8 0.7
2017-Nov-18 08:34N 28°29' W 016°11'10 6.3
2017-Nov-18 06:55N 28°25' W 016°00'511.7
2017-Nov-18 06:30N 28°27' W 015°55'713.2
2017-Nov-18 06:00N 28°32' W 015°50'813.0
2017-Nov-18 05:26N 28°38' W 015°44'511.5
2017-Nov-18 05:00N 28°41' W 015°48'612.2
2017-Nov-18 04:30N 28°46' W 015°53'1312.1
2017-Nov-18 03:24N 28°54' W 016°05'812.3
2017-Nov-18 02:43N 28°58' W 016°13'412.2
2017-Nov-18 02:25N 28°59' W 016°17'612.0
2017-Nov-18 01:56N 29°02' W 016°23'1812.2
2017-Nov-18 00:30N 29°09' W 016°41'612.4
2017-Nov-17 23:59N 29°12' W 016°48'  

Dump ship's entire track history